sensor_id;sensor_type;location;lat;lon;timestamp;P1;durP1;ratioP1;P2;durP2;ratioP2
50689;SDS011;54375;48.298;11.238;2022-10-19T00:00:17;14.23;;;8.43;;
50689;SDS011;54375;48.298;11.238;2022-10-19T00:03:18;9.47;;;6.83;;
50689;SDS011;54375;48.298;11.238;2022-10-19T00:06:24;11.73;;;6.95;;
50689;SDS011;54375;48.298;11.238;2022-10-19T00:09:26;14.05;;;9.43;;
50689;SDS011;54375;48.298;11.238;2022-10-19T00:12:26;16.90;;;8.17;;
50689;SDS011;54375;48.298;11.238;2022-10-19T00:15:27;10.40;;;7.17;;
50689;SDS011;54375;48.298;11.238;2022-10-19T00:18:28;8.73;;;5.60;;
50689;SDS011;54375;48.298;11.238;2022-10-19T00:21:30;8.97;;;6.30;;
50689;SDS011;54375;48.298;11.238;2022-10-19T00:24:31;15.13;;;7.15;;
50689;SDS011;54375;48.298;11.238;2022-10-19T00:27:32;10.93;;;6.73;;
50689;SDS011;54375;48.298;11.238;2022-10-19T00:30:35;24.80;;;6.33;;
50689;SDS011;54375;48.298;11.238;2022-10-19T00:33:36;9.35;;;5.93;;
50689;SDS011;54375;48.298;11.238;2022-10-19T00:36:39;8.52;;;5.50;;
50689;SDS011;54375;48.298;11.238;2022-10-19T00:39:40;31.85;;;9.07;;
50689;SDS011;54375;48.298;11.238;2022-10-19T00:42:40;18.93;;;7.87;;
50689;SDS011;54375;48.298;11.238;2022-10-19T00:45:41;74.10;;;10.77;;
50689;SDS011;54375;48.298;11.238;2022-10-19T00:48:42;13.20;;;7.73;;
50689;SDS011;54375;48.298;11.238;2022-10-19T00:51:46;13.20;;;6.00;;
50689;SDS011;54375;48.298;11.238;2022-10-19T00:54:50;13.07;;;5.88;;
50689;SDS011;54375;48.298;11.238;2022-10-19T00:57:53;7.65;;;5.53;;
50689;SDS011;54375;48.298;11.238;2022-10-19T01:00:53;7.53;;;5.37;;
50689;SDS011;54375;48.298;11.238;2022-10-19T01:03:55;9.88;;;5.22;;
50689;SDS011;54375;48.298;11.238;2022-10-19T01:06:57;7.47;;;5.70;;
50689;SDS011;54375;48.298;11.238;2022-10-19T01:09:59;7.70;;;5.32;;
50689;SDS011;54375;48.298;11.238;2022-10-19T01:13:04;12.95;;;6.13;;
50689;SDS011;54375;48.298;11.238;2022-10-19T01:16:19;14.15;;;5.97;;
50689;SDS011;54375;48.298;11.238;2022-10-19T01:19:35;8.30;;;5.75;;
50689;SDS011;54375;48.298;11.238;2022-10-19T01:22:54;13.63;;;5.82;;
50689;SDS011;54375;48.298;11.238;2022-10-19T01:26:14;8.57;;;5.68;;
50689;SDS011;54375;48.298;11.238;2022-10-19T01:29:36;7.65;;;5.60;;
50689;SDS011;54375;48.298;11.238;2022-10-19T01:36:20;9.88;;;7.65;;
50689;SDS011;54375;48.298;11.238;2022-10-19T01:39:25;8.55;;;5.93;;
50689;SDS011;54375;48.298;11.238;2022-10-19T01:42:37;10.20;;;5.40;;
50689;SDS011;54375;48.298;11.238;2022-10-19T01:45:45;7.75;;;5.97;;
50689;SDS011;54375;48.298;11.238;2022-10-19T01:48:53;7.93;;;6.07;;
50689;SDS011;54375;48.298;11.238;2022-10-19T01:51:59;6.57;;;4.85;;
50689;SDS011;54375;48.298;11.238;2022-10-19T01:55:03;6.53;;;4.90;;
50689;SDS011;54375;48.298;11.238;2022-10-19T01:58:05;10.63;;;6.07;;
50689;SDS011;54375;48.298;11.238;2022-10-19T02:01:08;6.95;;;5.80;;
50689;SDS011;54375;48.298;11.238;2022-10-19T02:04:14;7.47;;;5.93;;
50689;SDS011;54375;48.298;11.238;2022-10-19T02:07:17;9.23;;;6.90;;
50689;SDS011;54375;48.298;11.238;2022-10-19T02:10:23;12.00;;;7.82;;
50689;SDS011;54375;48.298;11.238;2022-10-19T02:13:25;11.85;;;7.90;;
50689;SDS011;54375;48.298;11.238;2022-10-19T02:16:28;9.73;;;7.50;;
50689;SDS011;54375;48.298;11.238;2022-10-19T02:19:33;10.98;;;7.68;;
50689;SDS011;54375;48.298;11.238;2022-10-19T02:22:34;12.25;;;8.13;;
50689;SDS011;54375;48.298;11.238;2022-10-19T02:25:35;11.50;;;8.65;;
50689;SDS011;54375;48.298;11.238;2022-10-19T02:28:36;10.27;;;7.53;;
50689;SDS011;54375;48.298;11.238;2022-10-19T02:31:37;10.43;;;7.00;;
50689;SDS011;54375;48.298;11.238;2022-10-19T02:34:40;12.90;;;8.60;;
50689;SDS011;54375;48.298;11.238;2022-10-19T02:37:41;10.05;;;6.85;;
50689;SDS011;54375;48.298;11.238;2022-10-19T02:40:42;10.85;;;6.88;;
50689;SDS011;54375;48.298;11.238;2022-10-19T02:44:00;11.20;;;7.50;;
50689;SDS011;54375;48.298;11.238;2022-10-19T02:47:05;9.65;;;6.63;;
50689;SDS011;54375;48.298;11.238;2022-10-19T02:50:11;9.70;;;6.90;;
50689;SDS011;54375;48.298;11.238;2022-10-19T02:53:13;9.60;;;6.28;;
50689;SDS011;54375;48.298;11.238;2022-10-19T02:56:14;11.32;;;7.60;;
50689;SDS011;54375;48.298;11.238;2022-10-19T02:59:15;15.40;;;9.73;;
50689;SDS011;54375;48.298;11.238;2022-10-19T03:02:16;12.75;;;9.00;;
50689;SDS011;54375;48.298;11.238;2022-10-19T03:08:20;13.93;;;8.18;;
50689;SDS011;54375;48.298;11.238;2022-10-19T03:11:20;11.40;;;7.97;;
50689;SDS011;54375;48.298;11.238;2022-10-19T03:14:21;11.20;;;7.73;;
50689;SDS011;54375;48.298;11.238;2022-10-19T03:17:22;13.67;;;8.53;;
50689;SDS011;54375;48.298;11.238;2022-10-19T03:20:24;12.10;;;7.70;;
50689;SDS011;54375;48.298;11.238;2022-10-19T03:23:25;12.70;;;7.85;;
50689;SDS011;54375;48.298;11.238;2022-10-19T03:26:26;14.73;;;8.83;;
50689;SDS011;54375;48.298;11.238;2022-10-19T03:29:26;14.63;;;7.97;;
50689;SDS011;54375;48.298;11.238;2022-10-19T03:32:28;16.60;;;10.03;;
50689;SDS011;54375;48.298;11.238;2022-10-19T03:35:30;14.10;;;8.70;;
50689;SDS011;54375;48.298;11.238;2022-10-19T03:38:30;13.65;;;8.25;;
50689;SDS011;54375;48.298;11.238;2022-10-19T03:41:32;12.40;;;8.23;;
50689;SDS011;54375;48.298;11.238;2022-10-19T03:47:34;10.95;;;7.90;;
50689;SDS011;54375;48.298;11.238;2022-10-19T03:50:36;10.07;;;6.77;;
50689;SDS011;54375;48.298;11.238;2022-10-19T03:53:37;12.30;;;7.10;;
50689;SDS011;54375;48.298;11.238;2022-10-19T03:56:38;9.73;;;7.40;;
50689;SDS011;54375;48.298;11.238;2022-10-19T03:59:39;12.53;;;8.07;;
50689;SDS011;54375;48.298;11.238;2022-10-19T04:02:40;14.67;;;7.97;;
50689;SDS011;54375;48.298;11.238;2022-10-19T04:05:42;11.93;;;7.73;;
50689;SDS011;54375;48.298;11.238;2022-10-19T04:08:43;13.50;;;9.57;;
50689;SDS011;54375;48.298;11.238;2022-10-19T04:11:47;18.13;;;10.20;;
50689;SDS011;54375;48.298;11.238;2022-10-19T04:14:48;12.77;;;9.05;;
50689;SDS011;54375;48.298;11.238;2022-10-19T04:17:49;14.27;;;8.13;;
50689;SDS011;54375;48.298;11.238;2022-10-19T04:20:55;13.77;;;6.93;;
50689;SDS011;54375;48.298;11.238;2022-10-19T04:23:57;17.30;;;9.38;;
50689;SDS011;54375;48.298;11.238;2022-10-19T04:27:00;12.82;;;7.40;;
50689;SDS011;54375;48.298;11.238;2022-10-19T04:30:01;9.73;;;6.83;;
50689;SDS011;54375;48.298;11.238;2022-10-19T04:33:02;14.63;;;8.40;;
50689;SDS011;54375;48.298;11.238;2022-10-19T04:36:04;12.77;;;8.60;;
50689;SDS011;54375;48.298;11.238;2022-10-19T04:39:07;11.00;;;7.40;;
50689;SDS011;54375;48.298;11.238;2022-10-19T04:42:08;10.40;;;7.40;;
50689;SDS011;54375;48.298;11.238;2022-10-19T04:45:09;9.13;;;6.63;;
50689;SDS011;54375;48.298;11.238;2022-10-19T04:48:10;9.93;;;6.90;;
50689;SDS011;54375;48.298;11.238;2022-10-19T04:51:12;14.17;;;8.80;;
50689;SDS011;54375;48.298;11.238;2022-10-19T04:54:14;11.70;;;8.68;;
50689;SDS011;54375;48.298;11.238;2022-10-19T04:57:15;13.13;;;8.37;;
50689;SDS011;54375;48.298;11.238;2022-10-19T05:00:15;17.57;;;10.63;;
50689;SDS011;54375;48.298;11.238;2022-10-19T05:03:16;12.80;;;8.50;;
50689;SDS011;54375;48.298;11.238;2022-10-19T05:06:19;13.50;;;8.20;;
50689;SDS011;54375;48.298;11.238;2022-10-19T05:09:19;14.57;;;9.50;;
50689;SDS011;54375;48.298;11.238;2022-10-19T05:12:20;12.30;;;8.20;;
50689;SDS011;54375;48.298;11.238;2022-10-19T05:15:21;14.97;;;8.00;;
50689;SDS011;54375;48.298;11.238;2022-10-19T05:18:22;19.50;;;10.00;;
50689;SDS011;54375;48.298;11.238;2022-10-19T05:21:25;22.37;;;11.00;;
50689;SDS011;54375;48.298;11.238;2022-10-19T05:24:27;17.25;;;10.43;;
50689;SDS011;54375;48.298;11.238;2022-10-19T05:27:27;15.80;;;9.63;;
50689;SDS011;54375;48.298;11.238;2022-10-19T05:30:28;13.27;;;8.47;;
50689;SDS011;54375;48.298;11.238;2022-10-19T05:33:29;14.00;;;9.63;;
50689;SDS011;54375;48.298;11.238;2022-10-19T05:36:31;13.90;;;9.07;;
50689;SDS011;54375;48.298;11.238;2022-10-19T05:39:33;16.77;;;9.77;;
50689;SDS011;54375;48.298;11.238;2022-10-19T05:42:34;18.53;;;10.90;;
50689;SDS011;54375;48.298;11.238;2022-10-19T05:45:35;14.10;;;8.70;;
50689;SDS011;54375;48.298;11.238;2022-10-19T05:48:35;12.93;;;8.37;;
50689;SDS011;54375;48.298;11.238;2022-10-19T05:51:38;15.77;;;8.85;;
50689;SDS011;54375;48.298;11.238;2022-10-19T05:54:39;18.50;;;11.93;;
50689;SDS011;54375;48.298;11.238;2022-10-19T05:57:40;20.50;;;12.27;;
50689;SDS011;54375;48.298;11.238;2022-10-19T06:00:41;17.13;;;11.03;;
50689;SDS011;54375;48.298;11.238;2022-10-19T06:03:42;15.53;;;10.77;;
50689;SDS011;54375;48.298;11.238;2022-10-19T06:06:44;14.20;;;9.63;;
50689;SDS011;54375;48.298;11.238;2022-10-19T06:09:45;15.95;;;10.30;;
50689;SDS011;54375;48.298;11.238;2022-10-19T06:12:45;13.87;;;9.40;;
50689;SDS011;54375;48.298;11.238;2022-10-19T06:15:49;12.97;;;9.17;;
50689;SDS011;54375;48.298;11.238;2022-10-19T06:18:50;15.63;;;9.63;;
50689;SDS011;54375;48.298;11.238;2022-10-19T06:21:53;15.60;;;9.85;;
50689;SDS011;54375;48.298;11.238;2022-10-19T06:24:54;15.35;;;9.65;;
50689;SDS011;54375;48.298;11.238;2022-10-19T06:27:55;17.50;;;11.27;;
50689;SDS011;54375;48.298;11.238;2022-10-19T06:30:56;19.97;;;12.17;;
50689;SDS011;54375;48.298;11.238;2022-10-19T06:33:57;15.03;;;10.83;;
50689;SDS011;54375;48.298;11.238;2022-10-19T06:36:59;17.63;;;9.80;;
50689;SDS011;54375;48.298;11.238;2022-10-19T06:40:00;13.90;;;9.88;;
50689;SDS011;54375;48.298;11.238;2022-10-19T06:43:00;17.13;;;10.90;;
50689;SDS011;54375;48.298;11.238;2022-10-19T06:46:02;22.83;;;11.20;;
50689;SDS011;54375;48.298;11.238;2022-10-19T06:49:04;13.57;;;9.43;;
50689;SDS011;54375;48.298;11.238;2022-10-19T06:52:06;17.77;;;11.57;;
50689;SDS011;54375;48.298;11.238;2022-10-19T06:55:07;16.13;;;11.13;;
50689;SDS011;54375;48.298;11.238;2022-10-19T06:58:08;22.63;;;10.23;;
50689;SDS011;54375;48.298;11.238;2022-10-19T07:01:09;14.97;;;10.40;;
50689;SDS011;54375;48.298;11.238;2022-10-19T07:04:10;13.60;;;8.82;;
50689;SDS011;54375;48.298;11.238;2022-10-19T07:07:12;13.27;;;9.47;;
50689;SDS011;54375;48.298;11.238;2022-10-19T07:10:13;19.70;;;10.27;;
50689;SDS011;54375;48.298;11.238;2022-10-19T07:13:14;14.97;;;9.70;;
50689;SDS011;54375;48.298;11.238;2022-10-19T07:16:15;17.70;;;11.80;;
50689;SDS011;54375;48.298;11.238;2022-10-19T07:19:17;16.30;;;11.13;;
50689;SDS011;54375;48.298;11.238;2022-10-19T07:22:19;15.10;;;9.50;;
50689;SDS011;54375;48.298;11.238;2022-10-19T07:25:20;15.52;;;10.13;;
50689;SDS011;54375;48.298;11.238;2022-10-19T07:28:24;16.25;;;9.07;;
50689;SDS011;54375;48.298;11.238;2022-10-19T07:31:25;16.50;;;10.87;;
50689;SDS011;54375;48.298;11.238;2022-10-19T07:34:27;20.10;;;10.82;;
50689;SDS011;54375;48.298;11.238;2022-10-19T07:37:30;16.13;;;10.90;;
50689;SDS011;54375;48.298;11.238;2022-10-19T07:40:30;18.83;;;11.85;;
50689;SDS011;54375;48.298;11.238;2022-10-19T07:43:31;21.13;;;13.20;;
50689;SDS011;54375;48.298;11.238;2022-10-19T07:46:32;21.40;;;12.98;;
50689;SDS011;54375;48.298;11.238;2022-10-19T07:49:33;23.50;;;13.40;;
50689;SDS011;54375;48.298;11.238;2022-10-19T07:52:35;19.50;;;13.50;;
50689;SDS011;54375;48.298;11.238;2022-10-19T07:55:36;18.17;;;12.25;;
50689;SDS011;54375;48.298;11.238;2022-10-19T07:58:37;20.23;;;12.43;;
50689;SDS011;54375;48.298;11.238;2022-10-19T08:01:38;21.90;;;12.50;;
50689;SDS011;54375;48.298;11.238;2022-10-19T08:04:39;18.05;;;12.82;;
50689;SDS011;54375;48.298;11.238;2022-10-19T08:07:41;20.87;;;13.90;;
50689;SDS011;54375;48.298;11.238;2022-10-19T08:10:42;20.90;;;12.93;;
50689;SDS011;54375;48.298;11.238;2022-10-19T08:13:43;18.63;;;12.80;;
50689;SDS011;54375;48.298;11.238;2022-10-19T08:16:44;21.38;;;13.70;;
50689;SDS011;54375;48.298;11.238;2022-10-19T08:19:45;17.63;;;11.53;;
50689;SDS011;54375;48.298;11.238;2022-10-19T08:22:47;16.17;;;12.17;;
50689;SDS011;54375;48.298;11.238;2022-10-19T08:25:48;19.48;;;13.75;;
50689;SDS011;54375;48.298;11.238;2022-10-19T08:28:49;19.27;;;13.27;;
50689;SDS011;54375;48.298;11.238;2022-10-19T08:31:50;21.97;;;13.10;;
50689;SDS011;54375;48.298;11.238;2022-10-19T08:34:51;20.03;;;13.47;;
50689;SDS011;54375;48.298;11.238;2022-10-19T08:37:53;20.67;;;13.87;;
50689;SDS011;54375;48.298;11.238;2022-10-19T08:40:54;22.67;;;13.60;;
50689;SDS011;54375;48.298;11.238;2022-10-19T08:43:58;20.10;;;12.23;;
50689;SDS011;54375;48.298;11.238;2022-10-19T08:47:27;16.75;;;12.40;;
50689;SDS011;54375;48.298;11.238;2022-10-19T08:50:37;22.35;;;13.13;;
50689;SDS011;54375;48.298;11.238;2022-10-19T08:53:44;20.85;;;13.30;;
50689;SDS011;54375;48.298;11.238;2022-10-19T08:56:54;18.33;;;12.48;;
50689;SDS011;54375;48.298;11.238;2022-10-19T09:00:04;18.63;;;13.37;;
50689;SDS011;54375;48.298;11.238;2022-10-19T09:03:12;20.65;;;12.95;;
50689;SDS011;54375;48.298;11.238;2022-10-19T09:06:19;17.85;;;12.77;;
50689;SDS011;54375;48.298;11.238;2022-10-19T09:09:26;21.35;;;12.32;;
50689;SDS011;54375;48.298;11.238;2022-10-19T09:12:32;18.95;;;12.70;;
50689;SDS011;54375;48.298;11.238;2022-10-19T09:15:40;19.92;;;12.68;;
50689;SDS011;54375;48.298;11.238;2022-10-19T09:18:43;17.42;;;12.32;;
50689;SDS011;54375;48.298;11.238;2022-10-19T09:24:49;17.20;;;11.25;;
50689;SDS011;54375;48.298;11.238;2022-10-19T09:27:56;17.52;;;11.77;;
50689;SDS011;54375;48.298;11.238;2022-10-19T09:31:02;24.75;;;10.85;;
50689;SDS011;54375;48.298;11.238;2022-10-19T09:34:04;13.93;;;10.25;;
50689;SDS011;54375;48.298;11.238;2022-10-19T09:37:09;13.98;;;8.55;;
50689;SDS011;54375;48.298;11.238;2022-10-19T09:43:13;11.70;;;8.35;;
50689;SDS011;54375;48.298;11.238;2022-10-19T09:46:19;13.48;;;8.30;;
50689;SDS011;54375;48.298;11.238;2022-10-19T09:49:38;14.43;;;10.27;;
50689;SDS011;54375;48.298;11.238;2022-10-19T09:52:41;19.40;;;10.18;;
50689;SDS011;54375;48.298;11.238;2022-10-19T09:58:46;10.77;;;7.50;;
50689;SDS011;54375;48.298;11.238;2022-10-19T10:05:02;17.75;;;8.52;;
50689;SDS011;54375;48.298;11.238;2022-10-19T10:08:17;14.70;;;8.73;;
50689;SDS011;54375;48.298;11.238;2022-10-19T10:11:23;11.50;;;6.63;;
50689;SDS011;54375;48.298;11.238;2022-10-19T10:14:27;15.63;;;7.70;;
50689;SDS011;54375;48.298;11.238;2022-10-19T10:17:30;7.00;;;4.80;;
50689;SDS011;54375;48.298;11.238;2022-10-19T10:20:31;7.67;;;4.90;;
50689;SDS011;54375;48.298;11.238;2022-10-19T10:23:32;6.87;;;4.67;;
50689;SDS011;54375;48.298;11.238;2022-10-19T10:26:38;9.05;;;6.55;;
50689;SDS011;54375;48.298;11.238;2022-10-19T10:29:50;10.32;;;7.20;;
50689;SDS011;54375;48.298;11.238;2022-10-19T10:32:54;9.93;;;7.35;;
50689;SDS011;54375;48.298;11.238;2022-10-19T10:39:01;9.27;;;6.15;;
50689;SDS011;54375;48.298;11.238;2022-10-19T10:42:08;9.98;;;6.72;;
50689;SDS011;54375;48.298;11.238;2022-10-19T10:45:15;9.15;;;6.57;;
50689;SDS011;54375;48.298;11.238;2022-10-19T10:48:20;9.98;;;6.60;;
50689;SDS011;54375;48.298;11.238;2022-10-19T10:51:29;10.15;;;6.50;;
50689;SDS011;54375;48.298;11.238;2022-10-19T10:54:33;12.05;;;6.50;;
50689;SDS011;54375;48.298;11.238;2022-10-19T10:57:36;9.20;;;6.28;;
50689;SDS011;54375;48.298;11.238;2022-10-19T11:00:40;8.77;;;6.10;;
50689;SDS011;54375;48.298;11.238;2022-10-19T11:03:45;8.18;;;5.50;;
50689;SDS011;54375;48.298;11.238;2022-10-19T11:06:50;7.20;;;4.60;;
50689;SDS011;54375;48.298;11.238;2022-10-19T11:09:55;6.30;;;4.40;;
50689;SDS011;54375;48.298;11.238;2022-10-19T11:13:00;8.43;;;4.30;;
50689;SDS011;54375;48.298;11.238;2022-10-19T11:16:07;6.22;;;3.63;;
50689;SDS011;54375;48.298;11.238;2022-10-19T11:19:13;7.57;;;3.95;;
50689;SDS011;54375;48.298;11.238;2022-10-19T11:22:19;5.85;;;4.35;;
50689;SDS011;54375;48.298;11.238;2022-10-19T11:25:28;5.68;;;4.25;;
50689;SDS011;54375;48.298;11.238;2022-10-19T11:28:43;5.60;;;3.92;;
50689;SDS011;54375;48.298;11.238;2022-10-19T11:31:54;6.03;;;4.20;;
50689;SDS011;54375;48.298;11.238;2022-10-19T11:34:59;6.03;;;4.00;;
50689;SDS011;54375;48.298;11.238;2022-10-19T11:38:17;6.43;;;4.50;;
50689;SDS011;54375;48.298;11.238;2022-10-19T11:41:30;7.45;;;4.65;;
50689;SDS011;54375;48.298;11.238;2022-10-19T11:44:44;6.03;;;4.20;;
50689;SDS011;54375;48.298;11.238;2022-10-19T11:47:57;5.55;;;3.67;;
50689;SDS011;54375;48.298;11.238;2022-10-19T11:51:15;8.02;;;4.20;;
50689;SDS011;54375;48.298;11.238;2022-10-19T11:54:23;7.30;;;3.97;;
50689;SDS011;54375;48.298;11.238;2022-10-19T11:57:35;4.95;;;3.75;;
50689;SDS011;54375;48.298;11.238;2022-10-19T12:00:45;7.55;;;4.28;;
50689;SDS011;54375;48.298;11.238;2022-10-19T12:03:58;5.43;;;3.80;;
50689;SDS011;54375;48.298;11.238;2022-10-19T12:07:27;6.32;;;4.25;;
50689;SDS011;54375;48.298;11.238;2022-10-19T12:10:39;6.78;;;3.97;;
50689;SDS011;54375;48.298;11.238;2022-10-19T12:13:46;5.45;;;3.97;;
50689;SDS011;54375;48.298;11.238;2022-10-19T12:16:52;7.13;;;4.20;;
50689;SDS011;54375;48.298;11.238;2022-10-19T12:19:57;8.77;;;5.40;;
50689;SDS011;54375;48.298;11.238;2022-10-19T12:23:05;10.40;;;5.45;;
50689;SDS011;54375;48.298;11.238;2022-10-19T12:26:19;16.15;;;6.78;;
50689;SDS011;54375;48.298;11.238;2022-10-19T12:29:22;6.78;;;5.07;;
50689;SDS011;54375;48.298;11.238;2022-10-19T12:32:27;8.25;;;5.60;;
50689;SDS011;54375;48.298;11.238;2022-10-19T12:38:55;7.53;;;5.78;;
50689;SDS011;54375;48.298;11.238;2022-10-19T12:42:02;7.55;;;5.75;;
50689;SDS011;54375;48.298;11.238;2022-10-19T12:45:16;8.30;;;6.05;;
50689;SDS011;54375;48.298;11.238;2022-10-19T12:48:24;6.05;;;4.65;;
50689;SDS011;54375;48.298;11.238;2022-10-19T12:51:25;7.40;;;5.10;;
50689;SDS011;54375;48.298;11.238;2022-10-19T12:54:26;6.47;;;4.13;;
50689;SDS011;54375;48.298;11.238;2022-10-19T12:57:30;6.18;;;4.53;;
50689;SDS011;54375;48.298;11.238;2022-10-19T13:00:32;4.97;;;3.30;;
50689;SDS011;54375;48.298;11.238;2022-10-19T13:03:36;5.00;;;3.80;;
50689;SDS011;54375;48.298;11.238;2022-10-19T13:06:40;6.00;;;4.25;;
50689;SDS011;54375;48.298;11.238;2022-10-19T13:09:43;6.55;;;4.20;;
50689;SDS011;54375;48.298;11.238;2022-10-19T13:12:46;7.32;;;4.53;;
50689;SDS011;54375;48.298;11.238;2022-10-19T13:19:01;6.57;;;3.38;;
50689;SDS011;54375;48.298;11.238;2022-10-19T13:25:25;4.60;;;2.97;;
50689;SDS011;54375;48.298;11.238;2022-10-19T13:28:36;7.85;;;3.55;;
50689;SDS011;54375;48.298;11.238;2022-10-19T13:31:37;4.70;;;3.70;;
50689;SDS011;54375;48.298;11.238;2022-10-19T13:34:39;5.65;;;3.80;;
50689;SDS011;54375;48.298;11.238;2022-10-19T13:37:40;9.18;;;4.15;;
50689;SDS011;54375;48.298;11.238;2022-10-19T13:40:54;5.65;;;3.88;;
50689;SDS011;54375;48.298;11.238;2022-10-19T13:44:02;7.65;;;4.00;;
50689;SDS011;54375;48.298;11.238;2022-10-19T13:47:10;7.40;;;4.28;;
50689;SDS011;54375;48.298;11.238;2022-10-19T13:50:25;7.90;;;3.85;;
50689;SDS011;54375;48.298;11.238;2022-10-19T13:53:35;6.73;;;4.10;;
50689;SDS011;54375;48.298;11.238;2022-10-19T13:56:49;6.70;;;4.55;;
50689;SDS011;54375;48.298;11.238;2022-10-19T14:00:10;5.82;;;3.85;;
50689;SDS011;54375;48.298;11.238;2022-10-19T14:03:17;9.35;;;4.35;;
50689;SDS011;54375;48.298;11.238;2022-10-19T14:06:27;6.90;;;4.80;;
50689;SDS011;54375;48.298;11.238;2022-10-19T14:13:00;9.00;;;4.25;;
50689;SDS011;54375;48.298;11.238;2022-10-19T14:16:04;8.50;;;4.15;;
50689;SDS011;54375;48.298;11.238;2022-10-19T14:19:09;8.30;;;4.30;;
50689;SDS011;54375;48.298;11.238;2022-10-19T14:22:18;6.90;;;4.55;;
50689;SDS011;54375;48.298;11.238;2022-10-19T14:25:26;6.53;;;4.50;;
50689;SDS011;54375;48.298;11.238;2022-10-19T14:28:28;7.22;;;4.82;;
50689;SDS011;54375;48.298;11.238;2022-10-19T14:31:30;7.18;;;4.55;;
50689;SDS011;54375;48.298;11.238;2022-10-19T14:34:37;5.75;;;3.95;;
50689;SDS011;54375;48.298;11.238;2022-10-19T14:37:41;7.07;;;4.78;;
50689;SDS011;54375;48.298;11.238;2022-10-19T14:40:43;5.88;;;4.25;;
50689;SDS011;54375;48.298;11.238;2022-10-19T14:43:44;7.72;;;4.75;;
50689;SDS011;54375;48.298;11.238;2022-10-19T14:46:46;7.57;;;5.17;;
50689;SDS011;54375;48.298;11.238;2022-10-19T14:49:48;12.60;;;5.28;;
50689;SDS011;54375;48.298;11.238;2022-10-19T14:52:51;10.02;;;4.80;;
50689;SDS011;54375;48.298;11.238;2022-10-19T14:55:58;7.28;;;4.40;;
50689;SDS011;54375;48.298;11.238;2022-10-19T14:59:03;7.00;;;4.32;;
50689;SDS011;54375;48.298;11.238;2022-10-19T15:02:10;7.85;;;4.57;;
50689;SDS011;54375;48.298;11.238;2022-10-19T15:05:17;6.50;;;4.32;;
50689;SDS011;54375;48.298;11.238;2022-10-19T15:08:22;5.25;;;3.97;;
50689;SDS011;54375;48.298;11.238;2022-10-19T15:11:30;8.52;;;4.22;;
50689;SDS011;54375;48.298;11.238;2022-10-19T15:14:36;6.50;;;4.45;;
50689;SDS011;54375;48.298;11.238;2022-10-19T15:17:47;8.98;;;4.60;;
50689;SDS011;54375;48.298;11.238;2022-10-19T15:21:00;5.18;;;3.63;;
50689;SDS011;54375;48.298;11.238;2022-10-19T15:24:07;7.38;;;4.60;;
50689;SDS011;54375;48.298;11.238;2022-10-19T15:27:27;5.60;;;4.10;;
50689;SDS011;54375;48.298;11.238;2022-10-19T15:30:30;9.95;;;4.40;;
50689;SDS011;54375;48.298;11.238;2022-10-19T15:33:35;7.18;;;4.00;;
50689;SDS011;54375;48.298;11.238;2022-10-19T15:36:38;6.07;;;4.18;;
50689;SDS011;54375;48.298;11.238;2022-10-19T15:39:54;7.18;;;4.30;;
50689;SDS011;54375;48.298;11.238;2022-10-19T15:42:55;5.45;;;3.72;;
50689;SDS011;54375;48.298;11.238;2022-10-19T15:45:58;10.43;;;4.33;;
50689;SDS011;54375;48.298;11.238;2022-10-19T15:48:59;7.25;;;4.13;;
50689;SDS011;54375;48.298;11.238;2022-10-19T15:52:03;6.05;;;4.00;;
50689;SDS011;54375;48.298;11.238;2022-10-19T15:58:16;6.93;;;4.15;;
50689;SDS011;54375;48.298;11.238;2022-10-19T16:01:17;6.40;;;4.27;;
50689;SDS011;54375;48.298;11.238;2022-10-19T16:04:19;5.60;;;3.70;;
50689;SDS011;54375;48.298;11.238;2022-10-19T16:07:23;6.27;;;4.00;;
50689;SDS011;54375;48.298;11.238;2022-10-19T16:10:27;5.63;;;3.75;;
50689;SDS011;54375;48.298;11.238;2022-10-19T16:13:28;9.48;;;7.25;;
50689;SDS011;54375;48.298;11.238;2022-10-19T16:16:29;10.47;;;7.00;;
50689;SDS011;54375;48.298;11.238;2022-10-19T16:19:31;9.35;;;6.18;;
50689;SDS011;54375;48.298;11.238;2022-10-19T16:22:32;6.83;;;4.83;;
50689;SDS011;54375;48.298;11.238;2022-10-19T16:25:34;10.40;;;5.50;;
50689;SDS011;54375;48.298;11.238;2022-10-19T16:28:35;6.57;;;5.32;;
50689;SDS011;54375;48.298;11.238;2022-10-19T16:31:36;7.33;;;5.30;;
50689;SDS011;54375;48.298;11.238;2022-10-19T16:34:37;8.60;;;4.73;;
50689;SDS011;54375;48.298;11.238;2022-10-19T16:37:38;7.77;;;4.10;;
50689;SDS011;54375;48.298;11.238;2022-10-19T16:40:40;7.20;;;4.27;;
50689;SDS011;54375;48.298;11.238;2022-10-19T16:43:41;6.50;;;4.15;;
50689;SDS011;54375;48.298;11.238;2022-10-19T16:46:42;6.78;;;3.88;;
50689;SDS011;54375;48.298;11.238;2022-10-19T16:49:43;4.77;;;3.40;;
50689;SDS011;54375;48.298;11.238;2022-10-19T16:52:43;6.10;;;3.97;;
50689;SDS011;54375;48.298;11.238;2022-10-19T16:55:45;6.53;;;4.20;;
50689;SDS011;54375;48.298;11.238;2022-10-19T16:58:46;7.53;;;3.90;;
50689;SDS011;54375;48.298;11.238;2022-10-19T17:01:47;8.40;;;4.17;;
50689;SDS011;54375;48.298;11.238;2022-10-19T17:04:48;7.23;;;4.70;;
50689;SDS011;54375;48.298;11.238;2022-10-19T17:07:49;8.53;;;4.73;;
50689;SDS011;54375;48.298;11.238;2022-10-19T17:10:51;8.20;;;4.77;;
50689;SDS011;54375;48.298;11.238;2022-10-19T17:13:53;8.68;;;4.95;;
50689;SDS011;54375;48.298;11.238;2022-10-19T17:16:54;9.77;;;5.13;;
50689;SDS011;54375;48.298;11.238;2022-10-19T17:19:55;7.63;;;5.27;;
50689;SDS011;54375;48.298;11.238;2022-10-19T17:22:56;9.77;;;4.83;;
50689;SDS011;54375;48.298;11.238;2022-10-19T17:25:58;11.63;;;5.30;;
50689;SDS011;54375;48.298;11.238;2022-10-19T17:28:59;8.25;;;5.50;;
50689;SDS011;54375;48.298;11.238;2022-10-19T17:32:00;9.57;;;5.60;;
50689;SDS011;54375;48.298;11.238;2022-10-19T17:35:00;14.00;;;7.97;;
50689;SDS011;54375;48.298;11.238;2022-10-19T17:38:01;21.53;;;12.97;;
50689;SDS011;54375;48.298;11.238;2022-10-19T17:41:05;19.93;;;12.00;;
50689;SDS011;54375;48.298;11.238;2022-10-19T17:44:08;17.38;;;10.52;;
50689;SDS011;54375;48.298;11.238;2022-10-19T17:47:09;14.23;;;7.60;;
50689;SDS011;54375;48.298;11.238;2022-10-19T17:50:09;10.93;;;7.60;;
50689;SDS011;54375;48.298;11.238;2022-10-19T17:53:10;8.53;;;6.03;;
50689;SDS011;54375;48.298;11.238;2022-10-19T17:56:13;10.70;;;6.23;;
50689;SDS011;54375;48.298;11.238;2022-10-19T17:59:15;11.27;;;6.80;;
50689;SDS011;54375;48.298;11.238;2022-10-19T18:02:16;11.10;;;7.27;;
50689;SDS011;54375;48.298;11.238;2022-10-19T18:05:16;9.10;;;6.63;;
50689;SDS011;54375;48.298;11.238;2022-10-19T18:08:17;13.07;;;9.17;;
50689;SDS011;54375;48.298;11.238;2022-10-19T18:11:20;16.57;;;12.73;;
50689;SDS011;54375;48.298;11.238;2022-10-19T18:14:22;13.38;;;7.72;;
50689;SDS011;54375;48.298;11.238;2022-10-19T18:17:23;9.30;;;6.73;;
50689;SDS011;54375;48.298;11.238;2022-10-19T18:20:23;21.90;;;14.67;;
50689;SDS011;54375;48.298;11.238;2022-10-19T18:23:24;16.80;;;11.77;;
50689;SDS011;54375;48.298;11.238;2022-10-19T18:26:28;25.97;;;17.50;;
50689;SDS011;54375;48.298;11.238;2022-10-19T18:29:30;26.48;;;17.75;;
50689;SDS011;54375;48.298;11.238;2022-10-19T18:32:31;22.20;;;14.70;;
50689;SDS011;54375;48.298;11.238;2022-10-19T18:35:35;15.33;;;10.80;;
50689;SDS011;54375;48.298;11.238;2022-10-19T18:38:37;15.05;;;9.50;;